sensor_id;sensor_type;location;lat;lon;timestamp;P1;durP1;ratioP1;P2;durP2;ratioP2
46897;SDS011;32646;50.958;6.258;2023-10-13T00:00:26;9.57;;;4.70;;
46897;SDS011;32646;50.958;6.258;2023-10-13T00:02:53;10.40;;;4.80;;
46897;SDS011;32646;50.958;6.258;2023-10-13T00:05:20;9.48;;;4.63;;
46897;SDS011;32646;50.958;6.258;2023-10-13T00:07:46;11.18;;;4.78;;
46897;SDS011;32646;50.958;6.258;2023-10-13T00:10:13;12.05;;;5.10;;
46897;SDS011;32646;50.958;6.258;2023-10-13T00:12:39;10.20;;;5.20;;
46897;SDS011;32646;50.958;6.258;2023-10-13T00:15:06;8.63;;;3.88;;
46897;SDS011;32646;50.958;6.258;2023-10-13T00:17:33;10.63;;;4.50;;
46897;SDS011;32646;50.958;6.258;2023-10-13T00:19:59;9.80;;;4.28;;
46897;SDS011;32646;50.958;6.258;2023-10-13T00:22:26;10.30;;;4.85;;
46897;SDS011;32646;50.958;6.258;2023-10-13T00:24:53;9.38;;;4.45;;
46897;SDS011;32646;50.958;6.258;2023-10-13T00:27:20;9.27;;;4.53;;
46897;SDS011;32646;50.958;6.258;2023-10-13T00:29:47;10.27;;;4.93;;
46897;SDS011;32646;50.958;6.258;2023-10-13T00:32:13;10.95;;;5.00;;
46897;SDS011;32646;50.958;6.258;2023-10-13T00:34:40;10.13;;;5.13;;
46897;SDS011;32646;50.958;6.258;2023-10-13T00:37:07;8.98;;;4.60;;
46897;SDS011;32646;50.958;6.258;2023-10-13T00:39:33;11.57;;;5.13;;
46897;SDS011;32646;50.958;6.258;2023-10-13T00:42:00;10.25;;;4.20;;
46897;SDS011;32646;50.958;6.258;2023-10-13T00:44:26;9.75;;;4.78;;
46897;SDS011;32646;50.958;6.258;2023-10-13T00:46:53;11.18;;;4.45;;
46897;SDS011;32646;50.958;6.258;2023-10-13T00:49:21;11.02;;;4.97;;
46897;SDS011;32646;50.958;6.258;2023-10-13T00:51:49;9.18;;;4.55;;
46897;SDS011;32646;50.958;6.258;2023-10-13T00:54:17;9.98;;;5.15;;
46897;SDS011;32646;50.958;6.258;2023-10-13T00:56:43;10.07;;;4.43;;
46897;SDS011;32646;50.958;6.258;2023-10-13T00:59:13;10.57;;;5.32;;
46897;SDS011;32646;50.958;6.258;2023-10-13T01:01:42;12.40;;;4.63;;
46897;SDS011;32646;50.958;6.258;2023-10-13T01:04:10;11.02;;;4.72;;
46897;SDS011;32646;50.958;6.258;2023-10-13T01:06:39;11.32;;;5.43;;
46897;SDS011;32646;50.958;6.258;2023-10-13T01:09:09;13.68;;;5.45;;
46897;SDS011;32646;50.958;6.258;2023-10-13T01:11:40;10.05;;;4.55;;
46897;SDS011;32646;50.958;6.258;2023-10-13T01:14:08;9.98;;;4.60;;
46897;SDS011;32646;50.958;6.258;2023-10-13T01:16:35;9.50;;;4.82;;
46897;SDS011;32646;50.958;6.258;2023-10-13T01:19:02;12.25;;;5.07;;
46897;SDS011;32646;50.958;6.258;2023-10-13T01:21:29;14.02;;;5.15;;
46897;SDS011;32646;50.958;6.258;2023-10-13T01:23:55;10.52;;;5.72;;
46897;SDS011;32646;50.958;6.258;2023-10-13T01:26:22;13.35;;;6.07;;
46897;SDS011;32646;50.958;6.258;2023-10-13T01:28:48;9.77;;;5.13;;
46897;SDS011;32646;50.958;6.258;2023-10-13T01:31:16;14.23;;;6.40;;
46897;SDS011;32646;50.958;6.258;2023-10-13T01:33:42;14.82;;;5.95;;
46897;SDS011;32646;50.958;6.258;2023-10-13T01:36:09;10.95;;;5.65;;
46897;SDS011;32646;50.958;6.258;2023-10-13T01:38:36;10.57;;;5.45;;
46897;SDS011;32646;50.958;6.258;2023-10-13T01:41:06;13.82;;;6.10;;
46897;SDS011;32646;50.958;6.258;2023-10-13T01:43:32;11.90;;;5.57;;
46897;SDS011;32646;50.958;6.258;2023-10-13T01:45:59;12.13;;;6.15;;
46897;SDS011;32646;50.958;6.258;2023-10-13T01:48:26;13.30;;;5.88;;
46897;SDS011;32646;50.958;6.258;2023-10-13T01:50:55;13.25;;;6.15;;
46897;SDS011;32646;50.958;6.258;2023-10-13T01:53:22;16.05;;;6.93;;
46897;SDS011;32646;50.958;6.258;2023-10-13T01:55:49;14.68;;;6.80;;
46897;SDS011;32646;50.958;6.258;2023-10-13T01:58:16;17.15;;;7.60;;
46897;SDS011;32646;50.958;6.258;2023-10-13T02:00:43;18.33;;;7.18;;
46897;SDS011;32646;50.958;6.258;2023-10-13T02:03:11;18.13;;;7.13;;
46897;SDS011;32646;50.958;6.258;2023-10-13T02:05:38;15.35;;;7.35;;
46897;SDS011;32646;50.958;6.258;2023-10-13T02:08:05;16.35;;;7.65;;
46897;SDS011;32646;50.958;6.258;2023-10-13T02:10:31;13.43;;;6.78;;
46897;SDS011;32646;50.958;6.258;2023-10-13T02:12:58;17.30;;;7.00;;
46897;SDS011;32646;50.958;6.258;2023-10-13T02:15:25;14.23;;;6.63;;
46897;SDS011;32646;50.958;6.258;2023-10-13T02:17:52;14.15;;;6.45;;
46897;SDS011;32646;50.958;6.258;2023-10-13T02:20:19;15.95;;;7.05;;
46897;SDS011;32646;50.958;6.258;2023-10-13T02:22:45;17.70;;;7.53;;
46897;SDS011;32646;50.958;6.258;2023-10-13T02:25:12;14.32;;;6.25;;
46897;SDS011;32646;50.958;6.258;2023-10-13T02:27:39;15.63;;;7.22;;
46897;SDS011;32646;50.958;6.258;2023-10-13T02:30:06;13.88;;;6.78;;
46897;SDS011;32646;50.958;6.258;2023-10-13T02:32:34;20.70;;;6.75;;
46897;SDS011;32646;50.958;6.258;2023-10-13T02:35:00;14.90;;;6.78;;
46897;SDS011;32646;50.958;6.258;2023-10-13T02:37:27;13.27;;;6.90;;
46897;SDS011;32646;50.958;6.258;2023-10-13T02:39:53;15.40;;;6.80;;
46897;SDS011;32646;50.958;6.258;2023-10-13T02:42:20;15.00;;;6.53;;
46897;SDS011;32646;50.958;6.258;2023-10-13T02:44:46;13.85;;;6.50;;
46897;SDS011;32646;50.958;6.258;2023-10-13T02:47:13;15.98;;;6.55;;
46897;SDS011;32646;50.958;6.258;2023-10-13T02:49:40;18.13;;;6.70;;
46897;SDS011;32646;50.958;6.258;2023-10-13T02:52:07;13.63;;;6.43;;
46897;SDS011;32646;50.958;6.258;2023-10-13T02:54:33;16.25;;;7.25;;
46897;SDS011;32646;50.958;6.258;2023-10-13T02:57:00;16.05;;;5.90;;
46897;SDS011;32646;50.958;6.258;2023-10-13T02:59:28;11.05;;;6.03;;
46897;SDS011;32646;50.958;6.258;2023-10-13T03:01:55;17.48;;;6.15;;
46897;SDS011;32646;50.958;6.258;2023-10-13T03:04:21;13.40;;;5.57;;
46897;SDS011;32646;50.958;6.258;2023-10-13T03:06:48;15.55;;;6.03;;
46897;SDS011;32646;50.958;6.258;2023-10-13T03:09:14;13.88;;;5.38;;
46897;SDS011;32646;50.958;6.258;2023-10-13T03:11:41;11.82;;;5.72;;
46897;SDS011;32646;50.958;6.258;2023-10-13T03:14:09;11.45;;;5.70;;
46897;SDS011;32646;50.958;6.258;2023-10-13T03:16:36;13.32;;;5.15;;
46897;SDS011;32646;50.958;6.258;2023-10-13T03:19:02;12.38;;;5.15;;
46897;SDS011;32646;50.958;6.258;2023-10-13T03:21:29;11.65;;;5.45;;
46897;SDS011;32646;50.958;6.258;2023-10-13T03:23:56;11.38;;;5.05;;
46897;SDS011;32646;50.958;6.258;2023-10-13T03:26:24;9.13;;;5.07;;
46897;SDS011;32646;50.958;6.258;2023-10-13T03:28:51;10.75;;;4.95;;
46897;SDS011;32646;50.958;6.258;2023-10-13T03:31:18;12.57;;;4.85;;
46897;SDS011;32646;50.958;6.258;2023-10-13T03:33:46;9.60;;;4.57;;
46897;SDS011;32646;50.958;6.258;2023-10-13T03:36:13;9.95;;;4.57;;
46897;SDS011;32646;50.958;6.258;2023-10-13T03:38:39;10.02;;;4.75;;
46897;SDS011;32646;50.958;6.258;2023-10-13T03:41:06;9.65;;;4.25;;
46897;SDS011;32646;50.958;6.258;2023-10-13T03:43:33;13.75;;;4.25;;
46897;SDS011;32646;50.958;6.258;2023-10-13T03:46:00;12.55;;;4.65;;
46897;SDS011;32646;50.958;6.258;2023-10-13T03:48:27;10.43;;;4.40;;
46897;SDS011;32646;50.958;6.258;2023-10-13T03:50:58;11.60;;;4.10;;
46897;SDS011;32646;50.958;6.258;2023-10-13T03:53:25;6.97;;;3.72;;
46897;SDS011;32646;50.958;6.258;2023-10-13T03:55:52;9.52;;;4.68;;
46897;SDS011;32646;50.958;6.258;2023-10-13T03:58:19;12.70;;;4.47;;
46897;SDS011;32646;50.958;6.258;2023-10-13T04:00:45;12.60;;;4.60;;
46897;SDS011;32646;50.958;6.258;2023-10-13T04:03:12;7.75;;;4.15;;
46897;SDS011;32646;50.958;6.258;2023-10-13T04:05:38;9.80;;;4.82;;
46897;SDS011;32646;50.958;6.258;2023-10-13T04:08:05;9.73;;;4.72;;
46897;SDS011;32646;50.958;6.258;2023-10-13T04:10:33;12.45;;;4.93;;
46897;SDS011;32646;50.958;6.258;2023-10-13T04:12:59;9.65;;;4.13;;
46897;SDS011;32646;50.958;6.258;2023-10-13T04:15:29;12.50;;;4.90;;
46897;SDS011;32646;50.958;6.258;2023-10-13T04:17:57;11.07;;;4.25;;
46897;SDS011;32646;50.958;6.258;2023-10-13T04:20:24;12.18;;;4.82;;
46897;SDS011;32646;50.958;6.258;2023-10-13T04:22:51;8.82;;;4.30;;
46897;SDS011;32646;50.958;6.258;2023-10-13T04:25:24;7.55;;;4.10;;
46897;SDS011;32646;50.958;6.258;2023-10-13T04:27:52;10.35;;;5.03;;
46897;SDS011;32646;50.958;6.258;2023-10-13T04:30:18;9.65;;;4.40;;
46897;SDS011;32646;50.958;6.258;2023-10-13T04:32:45;11.90;;;4.80;;
46897;SDS011;32646;50.958;6.258;2023-10-13T04:35:12;10.88;;;4.38;;
46897;SDS011;32646;50.958;6.258;2023-10-13T04:37:38;8.80;;;4.15;;
46897;SDS011;32646;50.958;6.258;2023-10-13T04:40:06;9.25;;;4.78;;
46897;SDS011;32646;50.958;6.258;2023-10-13T04:42:33;8.60;;;3.95;;
46897;SDS011;32646;50.958;6.258;2023-10-13T04:44:59;9.95;;;4.13;;
46897;SDS011;32646;50.958;6.258;2023-10-13T04:47:26;10.40;;;4.15;;
46897;SDS011;32646;50.958;6.258;2023-10-13T04:49:53;8.13;;;3.90;;
46897;SDS011;32646;50.958;6.258;2023-10-13T04:52:19;10.63;;;4.18;;
46897;SDS011;32646;50.958;6.258;2023-10-13T04:54:46;12.30;;;4.35;;
46897;SDS011;32646;50.958;6.258;2023-10-13T04:57:13;12.38;;;4.30;;
46897;SDS011;32646;50.958;6.258;2023-10-13T04:59:40;11.57;;;4.10;;
46897;SDS011;32646;50.958;6.258;2023-10-13T05:02:07;12.07;;;4.47;;
46897;SDS011;32646;50.958;6.258;2023-10-13T05:04:33;10.35;;;3.80;;
46897;SDS011;32646;50.958;6.258;2023-10-13T05:07:00;8.80;;;4.13;;
46897;SDS011;32646;50.958;6.258;2023-10-13T05:09:27;9.65;;;3.97;;
46897;SDS011;32646;50.958;6.258;2023-10-13T05:11:53;8.15;;;3.78;;
46897;SDS011;32646;50.958;6.258;2023-10-13T05:14:20;11.90;;;4.15;;
46897;SDS011;32646;50.958;6.258;2023-10-13T05:16:47;10.05;;;4.53;;
46897;SDS011;32646;50.958;6.258;2023-10-13T05:19:14;11.27;;;4.32;;
46897;SDS011;32646;50.958;6.258;2023-10-13T05:21:40;12.48;;;4.38;;
46897;SDS011;32646;50.958;6.258;2023-10-13T05:24:07;10.27;;;4.20;;
46897;SDS011;32646;50.958;6.258;2023-10-13T05:26:34;9.68;;;4.05;;
46897;SDS011;32646;50.958;6.258;2023-10-13T05:29:01;11.07;;;4.05;;
46897;SDS011;32646;50.958;6.258;2023-10-13T05:31:40;11.68;;;4.05;;
46897;SDS011;32646;50.958;6.258;2023-10-13T05:34:06;11.68;;;4.35;;
46897;SDS011;32646;50.958;6.258;2023-10-13T05:36:33;10.00;;;3.42;;
46897;SDS011;32646;50.958;6.258;2023-10-13T05:39:00;11.52;;;3.80;;
46897;SDS011;32646;50.958;6.258;2023-10-13T05:41:26;12.15;;;4.45;;
46897;SDS011;32646;50.958;6.258;2023-10-13T05:43:55;7.93;;;3.42;;
46897;SDS011;32646;50.958;6.258;2023-10-13T05:46:22;8.00;;;3.88;;
46897;SDS011;32646;50.958;6.258;2023-10-13T05:48:49;10.07;;;4.15;;
46897;SDS011;32646;50.958;6.258;2023-10-13T05:51:16;15.30;;;4.32;;
46897;SDS011;32646;50.958;6.258;2023-10-13T05:53:42;9.32;;;4.13;;
46897;SDS011;32646;50.958;6.258;2023-10-13T05:56:09;13.27;;;4.45;;
46897;SDS011;32646;50.958;6.258;2023-10-13T05:58:35;12.45;;;4.57;;
46897;SDS011;32646;50.958;6.258;2023-10-13T06:01:02;9.65;;;4.03;;
46897;SDS011;32646;50.958;6.258;2023-10-13T06:03:29;10.57;;;4.10;;
46897;SDS011;32646;50.958;6.258;2023-10-13T06:05:55;11.00;;;4.07;;
46897;SDS011;32646;50.958;6.258;2023-10-13T06:08:22;11.63;;;3.85;;
46897;SDS011;32646;50.958;6.258;2023-10-13T06:10:48;7.68;;;3.40;;
46897;SDS011;32646;50.958;6.258;2023-10-13T06:13:15;11.70;;;4.13;;
46897;SDS011;32646;50.958;6.258;2023-10-13T06:15:42;10.63;;;4.32;;
46897;SDS011;32646;50.958;6.258;2023-10-13T06:18:09;9.82;;;3.47;;
46897;SDS011;32646;50.958;6.258;2023-10-13T06:20:39;10.05;;;3.60;;
46897;SDS011;32646;50.958;6.258;2023-10-13T06:23:06;8.30;;;3.55;;
46897;SDS011;32646;50.958;6.258;2023-10-13T06:25:33;9.75;;;3.60;;
46897;SDS011;32646;50.958;6.258;2023-10-13T06:28:00;10.40;;;3.88;;
46897;SDS011;32646;50.958;6.258;2023-10-13T06:30:26;10.32;;;3.45;;
46897;SDS011;32646;50.958;6.258;2023-10-13T06:32:53;9.05;;;3.58;;
46897;SDS011;32646;50.958;6.258;2023-10-13T06:35:19;11.25;;;3.70;;
46897;SDS011;32646;50.958;6.258;2023-10-13T06:37:46;13.10;;;4.00;;
46897;SDS011;32646;50.958;6.258;2023-10-13T06:40:13;8.38;;;3.50;;
46897;SDS011;32646;50.958;6.258;2023-10-13T06:42:39;12.68;;;3.65;;
46897;SDS011;32646;50.958;6.258;2023-10-13T06:45:06;8.38;;;3.38;;
46897;SDS011;32646;50.958;6.258;2023-10-13T06:47:33;13.80;;;3.85;;
46897;SDS011;32646;50.958;6.258;2023-10-13T06:50:03;11.45;;;3.92;;
46897;SDS011;32646;50.958;6.258;2023-10-13T06:52:30;11.68;;;4.00;;
46897;SDS011;32646;50.958;6.258;2023-10-13T06:54:57;11.18;;;4.07;;
46897;SDS011;32646;50.958;6.258;2023-10-13T06:57:23;11.88;;;3.78;;
46897;SDS011;32646;50.958;6.258;2023-10-13T06:59:50;8.75;;;3.75;;
46897;SDS011;32646;50.958;6.258;2023-10-13T07:02:17;13.73;;;3.88;;
46897;SDS011;32646;50.958;6.258;2023-10-13T07:04:53;8.40;;;3.17;;
46897;SDS011;32646;50.958;6.258;2023-10-13T07:07:20;8.75;;;3.97;;
46897;SDS011;32646;50.958;6.258;2023-10-13T07:09:46;8.70;;;3.30;;
46897;SDS011;32646;50.958;6.258;2023-10-13T07:12:13;7.70;;;3.17;;
46897;SDS011;32646;50.958;6.258;2023-10-13T07:14:40;10.05;;;3.78;;
46897;SDS011;32646;50.958;6.258;2023-10-13T07:17:07;8.77;;;3.40;;
46897;SDS011;32646;50.958;6.258;2023-10-13T07:19:33;11.50;;;3.63;;
46897;SDS011;32646;50.958;6.258;2023-10-13T07:22:01;9.48;;;3.38;;
46897;SDS011;32646;50.958;6.258;2023-10-13T07:24:28;8.70;;;3.25;;
46897;SDS011;32646;50.958;6.258;2023-10-13T07:26:55;8.77;;;3.22;;
46897;SDS011;32646;50.958;6.258;2023-10-13T07:29:22;9.65;;;3.75;;
46897;SDS011;32646;50.958;6.258;2023-10-13T07:31:48;8.15;;;3.28;;
46897;SDS011;32646;50.958;6.258;2023-10-13T07:34:15;13.45;;;3.25;;
46897;SDS011;32646;50.958;6.258;2023-10-13T07:36:42;8.23;;;3.85;;
46897;SDS011;32646;50.958;6.258;2023-10-13T07:39:08;7.93;;;2.95;;
46897;SDS011;32646;50.958;6.258;2023-10-13T07:41:48;11.15;;;3.97;;
46897;SDS011;32646;50.958;6.258;2023-10-13T07:44:15;13.85;;;4.35;;
46897;SDS011;32646;50.958;6.258;2023-10-13T07:46:42;10.30;;;2.85;;
46897;SDS011;32646;50.958;6.258;2023-10-13T07:49:09;11.05;;;3.30;;
46897;SDS011;32646;50.958;6.258;2023-10-13T07:51:35;10.38;;;3.45;;
46897;SDS011;32646;50.958;6.258;2023-10-13T07:54:02;13.57;;;3.80;;
46897;SDS011;32646;50.958;6.258;2023-10-13T07:56:29;8.48;;;2.92;;
46897;SDS011;32646;50.958;6.258;2023-10-13T07:58:55;7.75;;;3.53;;
46897;SDS011;32646;50.958;6.258;2023-10-13T08:01:22;12.10;;;3.50;;
46897;SDS011;32646;50.958;6.258;2023-10-13T08:03:49;8.55;;;2.63;;
46897;SDS011;32646;50.958;6.258;2023-10-13T08:06:16;6.55;;;2.58;;
46897;SDS011;32646;50.958;6.258;2023-10-13T08:08:47;8.88;;;2.70;;
46897;SDS011;32646;50.958;6.258;2023-10-13T08:11:14;9.85;;;2.85;;
46897;SDS011;32646;50.958;6.258;2023-10-13T08:13:41;8.25;;;2.92;;
46897;SDS011;32646;50.958;6.258;2023-10-13T08:16:29;8.68;;;3.28;;
46897;SDS011;32646;50.958;6.258;2023-10-13T08:18:56;7.63;;;2.92;;
46897;SDS011;32646;50.958;6.258;2023-10-13T08:21:23;10.52;;;2.90;;
46897;SDS011;32646;50.958;6.258;2023-10-13T08:23:50;8.25;;;2.80;;
46897;SDS011;32646;50.958;6.258;2023-10-13T08:26:17;8.00;;;2.60;;
46897;SDS011;32646;50.958;6.258;2023-10-13T08:28:44;8.00;;;2.90;;
46897;SDS011;32646;50.958;6.258;2023-10-13T08:31:22;8.13;;;2.70;;
46897;SDS011;32646;50.958;6.258;2023-10-13T08:33:52;6.18;;;2.70;;
46897;SDS011;32646;50.958;6.258;2023-10-13T08:36:21;7.18;;;2.90;;
46897;SDS011;32646;50.958;6.258;2023-10-13T08:38:48;9.52;;;3.58;;
46897;SDS011;32646;50.958;6.258;2023-10-13T08:41:17;8.25;;;3.10;;
46897;SDS011;32646;50.958;6.258;2023-10-13T08:48:39;8.90;;;3.42;;
46897;SDS011;32646;50.958;6.258;2023-10-13T08:51:05;8.13;;;3.28;;
46897;SDS011;32646;50.958;6.258;2023-10-13T08:53:32;9.63;;;3.03;;
46897;SDS011;32646;50.958;6.258;2023-10-13T08:56:05;12.65;;;3.75;;
46897;SDS011;32646;50.958;6.258;2023-10-13T08:58:34;7.85;;;3.00;;
46897;SDS011;32646;50.958;6.258;2023-10-13T09:01:03;7.40;;;2.95;;
46897;SDS011;32646;50.958;6.258;2023-10-13T09:03:29;7.95;;;3.15;;
46897;SDS011;32646;50.958;6.258;2023-10-13T09:08:25;7.82;;;3.58;;
46897;SDS011;32646;50.958;6.258;2023-10-13T09:10:56;10.23;;;3.45;;
46897;SDS011;32646;50.958;6.258;2023-10-13T09:13:24;7.47;;;3.22;;
46897;SDS011;32646;50.958;6.258;2023-10-13T09:16:08;7.90;;;3.58;;
46897;SDS011;32646;50.958;6.258;2023-10-13T09:18:35;8.60;;;3.40;;
46897;SDS011;32646;50.958;6.258;2023-10-13T09:21:02;6.97;;;2.90;;
46897;SDS011;32646;50.958;6.258;2023-10-13T09:23:29;7.47;;;3.30;;
46897;SDS011;32646;50.958;6.258;2023-10-13T09:25:55;10.32;;;4.00;;
46897;SDS011;32646;50.958;6.258;2023-10-13T09:28:31;10.10;;;3.70;;
46897;SDS011;32646;50.958;6.258;2023-10-13T09:30:58;7.80;;;3.38;;
46897;SDS011;32646;50.958;6.258;2023-10-13T09:33:26;8.05;;;3.67;;
46897;SDS011;32646;50.958;6.258;2023-10-13T09:35:53;7.93;;;3.67;;
46897;SDS011;32646;50.958;6.258;2023-10-13T09:38:20;10.40;;;3.75;;
46897;SDS011;32646;50.958;6.258;2023-10-13T09:40:47;9.10;;;4.68;;
46897;SDS011;32646;50.958;6.258;2023-10-13T09:43:14;10.43;;;3.90;;
46897;SDS011;32646;50.958;6.258;2023-10-13T09:45:43;11.07;;;4.10;;
46897;SDS011;32646;50.958;6.258;2023-10-13T09:48:12;10.63;;;4.22;;
46897;SDS011;32646;50.958;6.258;2023-10-13T09:50:43;8.98;;;4.10;;
46897;SDS011;32646;50.958;6.258;2023-10-13T09:53:12;12.07;;;4.40;;
46897;SDS011;32646;50.958;6.258;2023-10-13T09:55:50;10.60;;;4.15;;
46897;SDS011;32646;50.958;6.258;2023-10-13T09:58:23;8.95;;;3.65;;
46897;SDS011;32646;50.958;6.258;2023-10-13T10:00:52;8.68;;;3.90;;
46897;SDS011;32646;50.958;6.258;2023-10-13T10:03:23;7.00;;;3.60;;
46897;SDS011;32646;50.958;6.258;2023-10-13T10:06:00;8.77;;;3.90;;
46897;SDS011;32646;50.958;6.258;2023-10-13T10:08:27;9.25;;;4.20;;
46897;SDS011;32646;50.958;6.258;2023-10-13T10:11:12;9.00;;;3.60;;
46897;SDS011;32646;50.958;6.258;2023-10-13T10:13:53;9.23;;;3.70;;
46897;SDS011;32646;50.958;6.258;2023-10-13T10:16:56;9.52;;;3.85;;
46897;SDS011;32646;50.958;6.258;2023-10-13T10:19:32;7.85;;;3.53;;
46897;SDS011;32646;50.958;6.258;2023-10-13T10:22:04;9.23;;;3.72;;
46897;SDS011;32646;50.958;6.258;2023-10-13T10:24:31;12.25;;;4.10;;
46897;SDS011;32646;50.958;6.258;2023-10-13T10:26:58;7.00;;;3.53;;
46897;SDS011;32646;50.958;6.258;2023-10-13T10:29:24;10.52;;;3.92;;
46897;SDS011;32646;50.958;6.258;2023-10-13T10:31:51;9.43;;;3.90;;
46897;SDS011;32646;50.958;6.258;2023-10-13T10:34:18;9.60;;;3.88;;
46897;SDS011;32646;50.958;6.258;2023-10-13T10:36:53;12.00;;;4.05;;
46897;SDS011;32646;50.958;6.258;2023-10-13T10:39:20;8.18;;;3.70;;
46897;SDS011;32646;50.958;6.258;2023-10-13T10:42:06;8.10;;;3.38;;
46897;SDS011;32646;50.958;6.258;2023-10-13T10:44:41;8.73;;;3.42;;
46897;SDS011;32646;50.958;6.258;2023-10-13T10:47:11;8.40;;;3.22;;
46897;SDS011;32646;50.958;6.258;2023-10-13T10:49:41;9.00;;;3.80;;
46897;SDS011;32646;50.958;6.258;2023-10-13T10:52:09;10.45;;;3.75;;
46897;SDS011;32646;50.958;6.258;2023-10-13T10:54:36;10.02;;;3.63;;
46897;SDS011;32646;50.958;6.258;2023-10-13T10:57:02;13.18;;;4.47;;
46897;SDS011;32646;50.958;6.258;2023-10-13T10:59:33;10.20;;;4.75;;
46897;SDS011;32646;50.958;6.258;2023-10-13T11:02:00;6.97;;;3.20;;
46897;SDS011;32646;50.958;6.258;2023-10-13T11:04:27;8.32;;;3.25;;
46897;SDS011;32646;50.958;6.258;2023-10-13T11:06:54;12.90;;;3.50;;
46897;SDS011;32646;50.958;6.258;2023-10-13T11:09:26;9.85;;;3.78;;
46897;SDS011;32646;50.958;6.258;2023-10-13T11:11:54;9.98;;;4.00;;
46897;SDS011;32646;50.958;6.258;2023-10-13T11:14:21;11.48;;;3.85;;
46897;SDS011;32646;50.958;6.258;2023-10-13T11:16:50;9.63;;;3.20;;
46897;SDS011;32646;50.958;6.258;2023-10-13T11:19:17;9.90;;;3.13;;
46897;SDS011;32646;50.958;6.258;2023-10-13T11:21:44;9.82;;;3.70;;
46897;SDS011;32646;50.958;6.258;2023-10-13T11:24:10;10.35;;;3.85;;
46897;SDS011;32646;50.958;6.258;2023-10-13T11:26:37;11.13;;;3.22;;
46897;SDS011;32646;50.958;6.258;2023-10-13T11:29:04;9.85;;;3.22;;
46897;SDS011;32646;50.958;6.258;2023-10-13T11:31:31;10.52;;;3.70;;
46897;SDS011;32646;50.958;6.258;2023-10-13T11:33:57;10.30;;;3.08;;
46897;SDS011;32646;50.958;6.258;2023-10-13T11:36:24;7.85;;;2.67;;
46897;SDS011;32646;50.958;6.258;2023-10-13T11:38:50;13.80;;;2.92;;
46897;SDS011;32646;50.958;6.258;2023-10-13T11:41:17;10.85;;;3.15;;
46897;SDS011;32646;50.958;6.258;2023-10-13T11:43:45;11.63;;;3.47;;
46897;SDS011;32646;50.958;6.258;2023-10-13T11:46:12;11.27;;;3.13;;
46897;SDS011;32646;50.958;6.258;2023-10-13T11:48:44;9.30;;;2.95;;
46897;SDS011;32646;50.958;6.258;2023-10-13T11:51:12;10.57;;;3.08;;
46897;SDS011;32646;50.958;6.258;2023-10-13T11:53:40;8.77;;;3.15;;
46897;SDS011;32646;50.958;6.258;2023-10-13T11:56:08;8.15;;;2.72;;
46897;SDS011;32646;50.958;6.258;2023-10-13T11:58:38;12.80;;;3.22;;
46897;SDS011;32646;50.958;6.258;2023-10-13T12:01:06;11.88;;;3.15;;
46897;SDS011;32646;50.958;6.258;2023-10-13T12:03:33;9.30;;;3.35;;
46897;SDS011;32646;50.958;6.258;2023-10-13T12:06:00;7.93;;;2.83;;
46897;SDS011;32646;50.958;6.258;2023-10-13T12:08:26;8.05;;;2.72;;
46897;SDS011;32646;50.958;6.258;2023-10-13T12:10:53;11.63;;;3.53;;
46897;SDS011;32646;50.958;6.258;2023-10-13T12:13:19;9.00;;;3.15;;
46897;SDS011;32646;50.958;6.258;2023-10-13T12:15:46;11.63;;;3.25;;
46897;SDS011;32646;50.958;6.258;2023-10-13T12:18:13;11.90;;;3.85;;
46897;SDS011;32646;50.958;6.258;2023-10-13T12:20:39;12.27;;;3.55;;
46897;SDS011;32646;50.958;6.258;2023-10-13T12:23:06;12.27;;;2.92;;
46897;SDS011;32646;50.958;6.258;2023-10-13T12:25:33;8.88;;;3.25;;
46897;SDS011;32646;50.958;6.258;2023-10-13T12:28:00;9.93;;;3.10;;
46897;SDS011;32646;50.958;6.258;2023-10-13T12:30:27;13.10;;;3.35;;
46897;SDS011;32646;50.958;6.258;2023-10-13T12:32:53;12.20;;;3.00;;
46897;SDS011;32646;50.958;6.258;2023-10-13T12:35:20;9.40;;;2.55;;
46897;SDS011;32646;50.958;6.258;2023-10-13T12:37:46;7.82;;;2.60;;
46897;SDS011;32646;50.958;6.258;2023-10-13T12:40:17;17.02;;;3.33;;
46897;SDS011;32646;50.958;6.258;2023-10-13T12:42:45;10.15;;;3.80;;
46897;SDS011;32646;50.958;6.258;2023-10-13T12:45:11;7.93;;;3.15;;
46897;SDS011;32646;50.958;6.258;2023-10-13T12:47:38;9.88;;;2.90;;
46897;SDS011;32646;50.958;6.258;2023-10-13T12:50:05;10.63;;;2.95;;
46897;SDS011;32646;50.958;6.258;2023-10-13T12:52:31;13.25;;;3.13;;
46897;SDS011;32646;50.958;6.258;2023-10-13T12:54:58;10.23;;;3.17;;
46897;SDS011;32646;50.958;6.258;2023-10-13T12:57:26;11.43;;;2.92;;
46897;SDS011;32646;50.958;6.258;2023-10-13T12:59:53;7.95;;;3.20;;
46897;SDS011;32646;50.958;6.258;2023-10-13T13:02:23;12.00;;;3.10;;
46897;SDS011;32646;50.958;6.258;2023-10-13T13:04:52;11.70;;;3.42;;
46897;SDS011;32646;50.958;6.258;2023-10-13T13:07:20;10.75;;;2.85;;
46897;SDS011;32646;50.958;6.258;2023-10-13T13:09:46;11.60;;;2.88;;
46897;SDS011;32646;50.958;6.258;2023-10-13T13:12:13;13.65;;;3.75;;
46897;SDS011;32646;50.958;6.258;2023-10-13T13:14:39;12.20;;;2.85;;
46897;SDS011;32646;50.958;6.258;2023-10-13T13:17:06;8.02;;;2.47;;
46897;SDS011;32646;50.958;6.258;2023-10-13T13:19:34;11.50;;;3.03;;
46897;SDS011;32646;50.958;6.258;2023-10-13T13:22:02;12.00;;;3.25;;
46897;SDS011;32646;50.958;6.258;2023-10-13T13:24:29;10.45;;;3.40;;
46897;SDS011;32646;50.958;6.258;2023-10-13T13:26:56;11.90;;;3.35;;
46897;SDS011;32646;50.958;6.258;2023-10-13T13:29:23;11.57;;;2.88;;
46897;SDS011;32646;50.958;6.258;2023-10-13T13:31:49;10.52;;;3.03;;
46897;SDS011;32646;50.958;6.258;2023-10-13T13:34:16;9.05;;;2.78;;
46897;SDS011;32646;50.958;6.258;2023-10-13T13:36:43;8.43;;;3.05;;
46897;SDS011;32646;50.958;6.258;2023-10-13T13:39:12;8.95;;;2.95;;
46897;SDS011;32646;50.958;6.258;2023-10-13T13:41:39;10.02;;;3.05;;
46897;SDS011;32646;50.958;6.258;2023-10-13T13:44:05;10.52;;;3.00;;
46897;SDS011;32646;50.958;6.258;2023-10-13T13:46:32;11.10;;;3.00;;
46897;SDS011;32646;50.958;6.258;2023-10-13T13:48:59;11.60;;;3.33;;
46897;SDS011;32646;50.958;6.258;2023-10-13T13:51:26;11.07;;;2.83;;
46897;SDS011;32646;50.958;6.258;2023-10-13T13:53:54;10.90;;;3.65;;
46897;SDS011;32646;50.958;6.258;2023-10-13T13:56:22;11.70;;;3.33;;
46897;SDS011;32646;50.958;6.258;2023-10-13T13:58:49;8.88;;;2.85;;
46897;SDS011;32646;50.958;6.258;2023-10-13T14:01:16;11.15;;;2.80;;
46897;SDS011;32646;50.958;6.258;2023-10-13T14:03:43;10.35;;;3.10;;
46897;SDS011;32646;50.958;6.258;2023-10-13T14:06:13;13.35;;;3.17;;
46897;SDS011;32646;50.958;6.258;2023-10-13T14:08:42;8.95;;;2.80;;
46897;SDS011;32646;50.958;6.258;2023-10-13T14:11:09;12.68;;;4.25;;
46897;SDS011;32646;50.958;6.258;2023-10-13T14:13:35;11.32;;;3.30;;
46897;SDS011;32646;50.958;6.258;2023-10-13T14:16:02;12.35;;;3.45;;
46897;SDS011;32646;50.958;6.258;2023-10-13T14:18:29;8.52;;;2.95;;
46897;SDS011;32646;50.958;6.258;2023-10-13T14:20:55;18.65;;;3.88;;
46897;SDS011;32646;50.958;6.258;2023-10-13T14:23:22;13.15;;;3.60;;
46897;SDS011;32646;50.958;6.258;2023-10-13T14:25:49;9.35;;;3.50;;
46897;SDS011;32646;50.958;6.258;2023-10-13T14:28:15;9.90;;;3.42;;
46897;SDS011;32646;50.958;6.258;2023-10-13T14:30:42;7.65;;;3.05;;
46897;SDS011;32646;50.958;6.258;2023-10-13T14:33:08;7.30;;;3.13;;
46897;SDS011;32646;50.958;6.258;2023-10-13T14:35:35;10.45;;;3.20;;
46897;SDS011;32646;50.958;6.258;2023-10-13T14:38:02;8.02;;;2.70;;
46897;SDS011;32646;50.958;6.258;2023-10-13T14:40:29;9.85;;;3.30;;
46897;SDS011;32646;50.958;6.258;2023-10-13T14:42:56;8.50;;;3.58;;
46897;SDS011;32646;50.958;6.258;2023-10-13T14:45:22;8.25;;;2.97;;
46897;SDS011;32646;50.958;6.258;2023-10-13T14:47:49;7.85;;;2.80;;
46897;SDS011;32646;50.958;6.258;2023-10-13T14:50:16;10.23;;;3.25;;